sensor_id;sensor_type;location;lat;lon;timestamp;temperature;humidity
20345;DHT22;10330;48.816;9.278;2022-09-17T00:01:57;10.70;99.90
20345;DHT22;10330;48.816;9.278;2022-09-17T00:04:24;10.80;99.90
20345;DHT22;10330;48.816;9.278;2022-09-17T00:06:50;10.80;99.90
20345;DHT22;10330;48.816;9.278;2022-09-17T00:09:22;10.70;99.90
20345;DHT22;10330;48.816;9.278;2022-09-17T00:11:50;10.80;99.90
20345;DHT22;10330;48.816;9.278;2022-09-17T00:14:17;10.80;99.90
20345;DHT22;10330;48.816;9.278;2022-09-17T00:16:45;10.80;99.90
20345;DHT22;10330;48.816;9.278;2022-09-17T00:19:18;10.70;99.90
20345;DHT22;10330;48.816;9.278;2022-09-17T00:21:44;10.80;99.90
20345;DHT22;10330;48.816;9.278;2022-09-17T00:24:12;10.70;99.90
20345;DHT22;10330;48.816;9.278;2022-09-17T00:26:39;10.80;99.90
20345;DHT22;10330;48.816;9.278;2022-09-17T00:29:06;10.70;99.90
20345;DHT22;10330;48.816;9.278;2022-09-17T00:31:33;10.80;99.90
20345;DHT22;10330;48.816;9.278;2022-09-17T00:34:01;10.70;99.90
20345;DHT22;10330;48.816;9.278;2022-09-17T00:36:28;10.70;99.90
20345;DHT22;10330;48.816;9.278;2022-09-17T00:38:56;10.70;99.90
20345;DHT22;10330;48.816;9.278;2022-09-17T00:41:26;10.70;99.90
20345;DHT22;10330;48.816;9.278;2022-09-17T00:43:58;10.70;99.90
20345;DHT22;10330;48.816;9.278;2022-09-17T00:49:00;10.70;99.90
20345;DHT22;10330;48.816;9.278;2022-09-17T00:51:32;10.70;99.90
20345;DHT22;10330;48.816;9.278;2022-09-17T00:54:00;10.60;99.90
20345;DHT22;10330;48.816;9.278;2022-09-17T00:56:30;10.60;99.90
20345;DHT22;10330;48.816;9.278;2022-09-17T00:58:59;10.60;99.90
20345;DHT22;10330;48.816;9.278;2022-09-17T01:01:26;10.70;99.90
20345;DHT22;10330;48.816;9.278;2022-09-17T01:03:52;10.80;99.90
20345;DHT22;10330;48.816;9.278;2022-09-17T01:31:52;10.30;99.90
20345;DHT22;10330;48.816;9.278;2022-09-17T01:43:15;10.30;99.90
20345;DHT22;10330;48.816;9.278;2022-09-17T01:45:58;10.30;99.90
20345;DHT22;10330;48.816;9.278;2022-09-17T01:48:33;10.30;99.90
20345;DHT22;10330;48.816;9.278;2022-09-17T01:51:06;10.30;99.90
20345;DHT22;10330;48.816;9.278;2022-09-17T01:53:55;10.30;99.90
20345;DHT22;10330;48.816;9.278;2022-09-17T01:56:29;10.30;99.90
20345;DHT22;10330;48.816;9.278;2022-09-17T01:59:10;10.40;99.90
20345;DHT22;10330;48.816;9.278;2022-09-17T02:01:41;10.40;99.90
20345;DHT22;10330;48.816;9.278;2022-09-17T02:04:14;10.40;99.90
20345;DHT22;10330;48.816;9.278;2022-09-17T02:06:46;10.30;99.90
20345;DHT22;10330;48.816;9.278;2022-09-17T02:09:18;10.40;99.90
20345;DHT22;10330;48.816;9.278;2022-09-17T02:11:52;10.40;99.90
20345;DHT22;10330;48.816;9.278;2022-09-17T02:14:25;10.40;99.90
20345;DHT22;10330;48.816;9.278;2022-09-17T02:16:59;10.40;99.90
20345;DHT22;10330;48.816;9.278;2022-09-17T02:19:31;10.50;99.90
20345;DHT22;10330;48.816;9.278;2022-09-17T02:24:36;10.40;99.90
20345;DHT22;10330;48.816;9.278;2022-09-17T02:27:22;10.40;99.90
20345;DHT22;10330;48.816;9.278;2022-09-17T02:29:49;10.30;99.90
20345;DHT22;10330;48.816;9.278;2022-09-17T02:32:16;10.30;99.90
20345;DHT22;10330;48.816;9.278;2022-09-17T02:34:42;10.30;99.90
20345;DHT22;10330;48.816;9.278;2022-09-17T02:37:08;10.30;99.90
20345;DHT22;10330;48.816;9.278;2022-09-17T02:39:35;10.30;99.90
20345;DHT22;10330;48.816;9.278;2022-09-17T02:53:47;10.10;99.90
20345;DHT22;10330;48.816;9.278;2022-09-17T02:59:00;10.10;99.90
20345;DHT22;10330;48.816;9.278;2022-09-17T03:01:33;10.10;99.90
20345;DHT22;10330;48.816;9.278;2022-09-17T03:04:02;10.10;99.90
20345;DHT22;10330;48.816;9.278;2022-09-17T03:06:29;10.10;99.90
20345;DHT22;10330;48.816;9.278;2022-09-17T03:08:56;10.20;99.90
20345;DHT22;10330;48.816;9.278;2022-09-17T03:11:22;10.20;99.90
20345;DHT22;10330;48.816;9.278;2022-09-17T03:13:49;10.20;99.90
20345;DHT22;10330;48.816;9.278;2022-09-17T03:16:15;10.20;99.90
20345;DHT22;10330;48.816;9.278;2022-09-17T03:18:42;10.10;99.90
20345;DHT22;10330;48.816;9.278;2022-09-17T03:21:08;10.20;99.90
20345;DHT22;10330;48.816;9.278;2022-09-17T03:23:34;10.10;99.90
20345;DHT22;10330;48.816;9.278;2022-09-17T03:26:00;10.10;99.90
20345;DHT22;10330;48.816;9.278;2022-09-17T03:28:26;10.00;99.90
20345;DHT22;10330;48.816;9.278;2022-09-17T03:30:52;10.00;99.90
20345;DHT22;10330;48.816;9.278;2022-09-17T03:33:19;9.90;99.90
20345;DHT22;10330;48.816;9.278;2022-09-17T03:35:45;10.00;99.90
20345;DHT22;10330;48.816;9.278;2022-09-17T03:38:12;10.00;99.90
20345;DHT22;10330;48.816;9.278;2022-09-17T03:40:38;10.00;99.90
20345;DHT22;10330;48.816;9.278;2022-09-17T03:43:06;9.90;99.90
20345;DHT22;10330;48.816;9.278;2022-09-17T03:45:32;10.00;99.90
20345;DHT22;10330;48.816;9.278;2022-09-17T03:47:58;10.00;99.90
20345;DHT22;10330;48.816;9.278;2022-09-17T03:50:24;9.90;99.90
20345;DHT22;10330;48.816;9.278;2022-09-17T03:52:51;9.90;99.90
20345;DHT22;10330;48.816;9.278;2022-09-17T03:55:17;9.90;99.90
20345;DHT22;10330;48.816;9.278;2022-09-17T03:57:43;9.90;99.90
20345;DHT22;10330;48.816;9.278;2022-09-17T04:00:10;9.80;99.90
20345;DHT22;10330;48.816;9.278;2022-09-17T04:02:40;9.80;99.90
20345;DHT22;10330;48.816;9.278;2022-09-17T04:05:07;9.80;99.90
20345;DHT22;10330;48.816;9.278;2022-09-17T04:07:33;9.70;99.90
20345;DHT22;10330;48.816;9.278;2022-09-17T04:09:59;9.70;99.90
20345;DHT22;10330;48.816;9.278;2022-09-17T04:12:25;9.70;99.90
20345;DHT22;10330;48.816;9.278;2022-09-17T04:14:52;9.70;99.90
20345;DHT22;10330;48.816;9.278;2022-09-17T04:17:18;9.70;99.90
20345;DHT22;10330;48.816;9.278;2022-09-17T04:19:44;9.60;99.90
20345;DHT22;10330;48.816;9.278;2022-09-17T04:22:10;9.60;99.90
20345;DHT22;10330;48.816;9.278;2022-09-17T04:24:37;9.60;99.90
20345;DHT22;10330;48.816;9.278;2022-09-17T04:27:03;9.60;99.90
20345;DHT22;10330;48.816;9.278;2022-09-17T04:29:29;9.70;99.90
20345;DHT22;10330;48.816;9.278;2022-09-17T04:31:55;9.60;99.90
20345;DHT22;10330;48.816;9.278;2022-09-17T04:34:22;9.70;99.90
20345;DHT22;10330;48.816;9.278;2022-09-17T04:36:48;9.70;99.90
20345;DHT22;10330;48.816;9.278;2022-09-17T04:39:14;9.60;99.90
20345;DHT22;10330;48.816;9.278;2022-09-17T04:41:40;9.70;99.90
20345;DHT22;10330;48.816;9.278;2022-09-17T04:44:06;9.80;99.90
20345;DHT22;10330;48.816;9.278;2022-09-17T04:46:33;9.80;99.90
20345;DHT22;10330;48.816;9.278;2022-09-17T04:48:59;9.70;99.90
20345;DHT22;10330;48.816;9.278;2022-09-17T04:51:25;9.80;99.90
20345;DHT22;10330;48.816;9.278;2022-09-17T04:53:51;9.80;99.90
20345;DHT22;10330;48.816;9.278;2022-09-17T04:56:17;9.70;99.90
20345;DHT22;10330;48.816;9.278;2022-09-17T04:58:44;9.80;99.90
20345;DHT22;10330;48.816;9.278;2022-09-17T05:01:10;9.70;99.90
20345;DHT22;10330;48.816;9.278;2022-09-17T05:03:38;9.70;99.90
20345;DHT22;10330;48.816;9.278;2022-09-17T05:06:05;9.70;99.90
20345;DHT22;10330;48.816;9.278;2022-09-17T05:08:31;9.70;99.90
20345;DHT22;10330;48.816;9.278;2022-09-17T05:10:57;9.80;99.90
20345;DHT22;10330;48.816;9.278;2022-09-17T05:13:23;9.80;99.90
20345;DHT22;10330;48.816;9.278;2022-09-17T05:15:49;9.80;99.90
20345;DHT22;10330;48.816;9.278;2022-09-17T05:18:16;9.80;99.90
20345;DHT22;10330;48.816;9.278;2022-09-17T05:20:42;9.70;99.90
20345;DHT22;10330;48.816;9.278;2022-09-17T05:23:09;9.80;99.90
20345;DHT22;10330;48.816;9.278;2022-09-17T05:25:35;9.80;99.90
20345;DHT22;10330;48.816;9.278;2022-09-17T05:28:02;9.70;99.90
20345;DHT22;10330;48.816;9.278;2022-09-17T05:30:28;9.70;99.90
20345;DHT22;10330;48.816;9.278;2022-09-17T05:33:03;9.70;99.90
20345;DHT22;10330;48.816;9.278;2022-09-17T05:35:31;9.70;99.90
20345;DHT22;10330;48.816;9.278;2022-09-17T05:38:02;9.70;99.90
20345;DHT22;10330;48.816;9.278;2022-09-17T05:40:30;9.70;99.90
20345;DHT22;10330;48.816;9.278;2022-09-17T05:42:58;9.80;99.90
20345;DHT22;10330;48.816;9.278;2022-09-17T05:45:26;9.70;99.90
20345;DHT22;10330;48.816;9.278;2022-09-17T05:47:56;9.70;99.90
20345;DHT22;10330;48.816;9.278;2022-09-17T05:50:23;9.70;99.90
20345;DHT22;10330;48.816;9.278;2022-09-17T05:52:50;9.60;99.90
20345;DHT22;10330;48.816;9.278;2022-09-17T05:55:18;9.70;99.90
20345;DHT22;10330;48.816;9.278;2022-09-17T05:57:45;9.60;99.90
20345;DHT22;10330;48.816;9.278;2022-09-17T06:00:11;9.70;99.90
20345;DHT22;10330;48.816;9.278;2022-09-17T06:02:42;9.70;99.90
20345;DHT22;10330;48.816;9.278;2022-09-17T06:05:08;9.80;99.90
20345;DHT22;10330;48.816;9.278;2022-09-17T06:07:36;9.90;99.90
20345;DHT22;10330;48.816;9.278;2022-09-17T06:10:06;10.00;99.90
20345;DHT22;10330;48.816;9.278;2022-09-17T06:12:33;10.00;99.90
20345;DHT22;10330;48.816;9.278;2022-09-17T06:15:03;10.10;99.90
20345;DHT22;10330;48.816;9.278;2022-09-17T06:17:34;10.00;99.90
20345;DHT22;10330;48.816;9.278;2022-09-17T06:20:01;10.00;99.90
20345;DHT22;10330;48.816;9.278;2022-09-17T06:22:31;10.00;99.90
20345;DHT22;10330;48.816;9.278;2022-09-17T06:24:57;10.00;99.90
20345;DHT22;10330;48.816;9.278;2022-09-17T06:27:32;10.00;99.90
20345;DHT22;10330;48.816;9.278;2022-09-17T06:29:59;10.00;99.90
20345;DHT22;10330;48.816;9.278;2022-09-17T06:32:26;10.00;99.90
20345;DHT22;10330;48.816;9.278;2022-09-17T06:34:53;9.90;99.90
20345;DHT22;10330;48.816;9.278;2022-09-17T06:37:26;9.90;99.90
20345;DHT22;10330;48.816;9.278;2022-09-17T06:39:53;9.90;99.90
20345;DHT22;10330;48.816;9.278;2022-09-17T06:42:19;10.00;99.90
20345;DHT22;10330;48.816;9.278;2022-09-17T06:44:45;10.10;99.90
20345;DHT22;10330;48.816;9.278;2022-09-17T06:47:11;10.10;99.90
20345;DHT22;10330;48.816;9.278;2022-09-17T06:49:38;10.10;99.90
20345;DHT22;10330;48.816;9.278;2022-09-17T06:52:10;10.10;99.90
20345;DHT22;10330;48.816;9.278;2022-09-17T06:54:39;10.10;99.90
20345;DHT22;10330;48.816;9.278;2022-09-17T06:57:06;10.20;99.90
20345;DHT22;10330;48.816;9.278;2022-09-17T06:59:32;10.10;99.90
20345;DHT22;10330;48.816;9.278;2022-09-17T07:01:58;10.10;99.90
20345;DHT22;10330;48.816;9.278;2022-09-17T07:04:27;10.10;99.90
20345;DHT22;10330;48.816;9.278;2022-09-17T07:06:53;10.00;99.90
20345;DHT22;10330;48.816;9.278;2022-09-17T07:09:19;10.00;99.90
20345;DHT22;10330;48.816;9.278;2022-09-17T07:11:45;10.00;99.90
20345;DHT22;10330;48.816;9.278;2022-09-17T07:14:18;10.00;99.90
20345;DHT22;10330;48.816;9.278;2022-09-17T07:16:44;9.90;99.90
20345;DHT22;10330;48.816;9.278;2022-09-17T07:19:10;9.90;99.90
20345;DHT22;10330;48.816;9.278;2022-09-17T07:21:36;9.90;99.90
20345;DHT22;10330;48.816;9.278;2022-09-17T07:24:02;9.90;99.90
20345;DHT22;10330;48.816;9.278;2022-09-17T07:26:29;9.90;99.90
20345;DHT22;10330;48.816;9.278;2022-09-17T07:28:56;9.80;99.90
20345;DHT22;10330;48.816;9.278;2022-09-17T07:31:22;9.70;99.90
20345;DHT22;10330;48.816;9.278;2022-09-17T07:33:48;9.70;99.90
20345;DHT22;10330;48.816;9.278;2022-09-17T07:36:25;9.70;99.90
20345;DHT22;10330;48.816;9.278;2022-09-17T07:38:54;9.50;99.90
20345;DHT22;10330;48.816;9.278;2022-09-17T07:48:21;9.50;99.90
20345;DHT22;10330;48.816;9.278;2022-09-17T07:50:54;9.60;99.90
20345;DHT22;10330;48.816;9.278;2022-09-17T07:53:21;9.50;99.90
20345;DHT22;10330;48.816;9.278;2022-09-17T07:55:55;9.50;99.90
20345;DHT22;10330;48.816;9.278;2022-09-17T07:58:26;9.40;99.90
20345;DHT22;10330;48.816;9.278;2022-09-17T08:01:03;9.40;99.90
20345;DHT22;10330;48.816;9.278;2022-09-17T08:03:52;9.40;99.90
20345;DHT22;10330;48.816;9.278;2022-09-17T08:09:20;9.50;99.90
20345;DHT22;10330;48.816;9.278;2022-09-17T08:11:54;9.60;99.90
20345;DHT22;10330;48.816;9.278;2022-09-17T08:14:29;9.70;99.90
20345;DHT22;10330;48.816;9.278;2022-09-17T08:16:55;9.90;99.90
20345;DHT22;10330;48.816;9.278;2022-09-17T08:19:22;9.90;99.90
20345;DHT22;10330;48.816;9.278;2022-09-17T08:21:48;10.00;99.90
20345;DHT22;10330;48.816;9.278;2022-09-17T08:24:14;10.00;99.90
20345;DHT22;10330;48.816;9.278;2022-09-17T08:26:40;10.00;99.90
20345;DHT22;10330;48.816;9.278;2022-09-17T08:29:07;10.00;99.90
20345;DHT22;10330;48.816;9.278;2022-09-17T08:31:33;10.00;99.90
20345;DHT22;10330;48.816;9.278;2022-09-17T08:33:59;10.10;99.90
20345;DHT22;10330;48.816;9.278;2022-09-17T08:36:26;10.30;99.90
20345;DHT22;10330;48.816;9.278;2022-09-17T08:38:54;10.30;99.90
20345;DHT22;10330;48.816;9.278;2022-09-17T08:46:41;10.50;99.90
20345;DHT22;10330;48.816;9.278;2022-09-17T08:49:27;10.50;99.90
20345;DHT22;10330;48.816;9.278;2022-09-17T09:07:08;11.20;99.90
20345;DHT22;10330;48.816;9.278;2022-09-17T09:09:43;11.10;99.90
20345;DHT22;10330;48.816;9.278;2022-09-17T09:12:25;11.10;99.90
20345;DHT22;10330;48.816;9.278;2022-09-17T09:15:01;11.10;99.90
20345;DHT22;10330;48.816;9.278;2022-09-17T09:17:33;11.10;99.90
20345;DHT22;10330;48.816;9.278;2022-09-17T09:20:01;11.10;99.90
20345;DHT22;10330;48.816;9.278;2022-09-17T09:22:36;11.20;99.90
20345;DHT22;10330;48.816;9.278;2022-09-17T09:25:24;11.20;99.90
20345;DHT22;10330;48.816;9.278;2022-09-17T09:33:30;11.20;99.90
20345;DHT22;10330;48.816;9.278;2022-09-17T09:35:58;11.20;99.90
20345;DHT22;10330;48.816;9.278;2022-09-17T09:38:34;11.10;99.90
20345;DHT22;10330;48.816;9.278;2022-09-17T09:41:11;11.20;99.90
20345;DHT22;10330;48.816;9.278;2022-09-17T09:43:46;11.40;99.90
20345;DHT22;10330;48.816;9.278;2022-09-17T09:57:13;11.80;99.90
20345;DHT22;10330;48.816;9.278;2022-09-17T09:59:41;11.70;99.90
20345;DHT22;10330;48.816;9.278;2022-09-17T10:02:08;11.70;99.90
20345;DHT22;10330;48.816;9.278;2022-09-17T10:04:36;11.60;99.90
20345;DHT22;10330;48.816;9.278;2022-09-17T10:07:07;11.50;99.90
20345;DHT22;10330;48.816;9.278;2022-09-17T10:09:44;11.60;99.90
20345;DHT22;10330;48.816;9.278;2022-09-17T10:12:16;11.60;99.90
20345;DHT22;10330;48.816;9.278;2022-09-17T10:14:44;11.70;99.90
20345;DHT22;10330;48.816;9.278;2022-09-17T10:17:22;11.60;99.90
20345;DHT22;10330;48.816;9.278;2022-09-17T10:25:00;11.70;99.90
20345;DHT22;10330;48.816;9.278;2022-09-17T10:27:27;11.70;99.90
20345;DHT22;10330;48.816;9.278;2022-09-17T10:30:13;11.70;99.90
20345;DHT22;10330;48.816;9.278;2022-09-17T10:33:21;11.70;99.90
20345;DHT22;10330;48.816;9.278;2022-09-17T10:36:05;12.00;99.90
20345;DHT22;10330;48.816;9.278;2022-09-17T10:38:37;12.00;99.90
20345;DHT22;10330;48.816;9.278;2022-09-17T10:41:10;12.10;99.90
20345;DHT22;10330;48.816;9.278;2022-09-17T10:43:44;12.20;99.90
20345;DHT22;10330;48.816;9.278;2022-09-17T10:46:15;12.40;99.90
20345;DHT22;10330;48.816;9.278;2022-09-17T10:49:28;12.60;99.90
20345;DHT22;10330;48.816;9.278;2022-09-17T10:52:55;13.00;99.90
20345;DHT22;10330;48.816;9.278;2022-09-17T10:56:21;13.40;99.90
20345;DHT22;10330;48.816;9.278;2022-09-17T11:02:07;13.30;99.90
20345;DHT22;10330;48.816;9.278;2022-09-17T11:04:53;13.70;99.90
20345;DHT22;10330;48.816;9.278;2022-09-17T11:07:47;13.70;99.90
20345;DHT22;10330;48.816;9.278;2022-09-17T11:11:10;13.80;99.90
20345;DHT22;10330;48.816;9.278;2022-09-17T11:55:46;14.50;99.90
20345;DHT22;10330;48.816;9.278;2022-09-17T12:01:11;14.30;99.90
20345;DHT22;10330;48.816;9.278;2022-09-17T12:04:00;14.30;99.90
20345;DHT22;10330;48.816;9.278;2022-09-17T12:09:40;14.00;99.90
20345;DHT22;10330;48.816;9.278;2022-09-17T12:12:16;13.70;99.90
20345;DHT22;10330;48.816;9.278;2022-09-17T12:14:55;13.30;99.90
20345;DHT22;10330;48.816;9.278;2022-09-17T12:20:35;13.20;99.90
20345;DHT22;10330;48.816;9.278;2022-09-17T12:23:05;13.30;99.90
20345;DHT22;10330;48.816;9.278;2022-09-17T12:25:54;13.70;99.90
20345;DHT22;10330;48.816;9.278;2022-09-17T12:34:42;13.60;99.90
20345;DHT22;10330;48.816;9.278;2022-09-17T12:37:35;13.10;99.90
20345;DHT22;10330;48.816;9.278;2022-09-17T12:42:53;12.60;99.90
20345;DHT22;10330;48.816;9.278;2022-09-17T12:48:48;13.20;99.90
20345;DHT22;10330;48.816;9.278;2022-09-17T12:54:09;13.20;99.90
20345;DHT22;10330;48.816;9.278;2022-09-17T12:59:17;13.00;99.90
20345;DHT22;10330;48.816;9.278;2022-09-17T13:04:58;13.20;99.90
20345;DHT22;10330;48.816;9.278;2022-09-17T13:13:48;12.60;99.90
20345;DHT22;10330;48.816;9.278;2022-09-17T13:22:04;12.70;99.90
20345;DHT22;10330;48.816;9.278;2022-09-17T13:24:42;12.70;99.90
20345;DHT22;10330;48.816;9.278;2022-09-17T13:27:24;12.60;99.90
20345;DHT22;10330;48.816;9.278;2022-09-17T13:41:29;12.70;99.90
20345;DHT22;10330;48.816;9.278;2022-09-17T13:44:10;12.90;99.90
20345;DHT22;10330;48.816;9.278;2022-09-17T13:46:38;13.00;99.90
20345;DHT22;10330;48.816;9.278;2022-09-17T13:49:12;13.10;99.90
20345;DHT22;10330;48.816;9.278;2022-09-17T13:54:07;13.40;99.90
20345;DHT22;10330;48.816;9.278;2022-09-17T13:56:49;13.60;99.90
20345;DHT22;10330;48.816;9.278;2022-09-17T13:59:34;14.00;99.90
20345;DHT22;10330;48.816;9.278;2022-09-17T16:22:34;13.60;99.90
20345;DHT22;10330;48.816;9.278;2022-09-17T16:25:06;13.70;99.90
20345;DHT22;10330;48.816;9.278;2022-09-17T16:27:49;13.80;99.90
20345;DHT22;10330;48.816;9.278;2022-09-17T16:30:19;13.80;99.90
20345;DHT22;10330;48.816;9.278;2022-09-17T16:32:49;13.80;99.90
20345;DHT22;10330;48.816;9.278;2022-09-17T16:35:22;13.80;99.90
20345;DHT22;10330;48.816;9.278;2022-09-17T16:37:53;13.90;99.90
20345;DHT22;10330;48.816;9.278;2022-09-17T16:40:21;13.90;99.90
20345;DHT22;10330;48.816;9.278;2022-09-17T16:42:48;13.80;99.90
20345;DHT22;10330;48.816;9.278;2022-09-17T16:45:14;13.80;99.90
20345;DHT22;10330;48.816;9.278;2022-09-17T16:47:41;13.70;99.90
20345;DHT22;10330;48.816;9.278;2022-09-17T16:50:10;13.60;99.90
20345;DHT22;10330;48.816;9.278;2022-09-17T16:52:36;13.50;99.90
20345;DHT22;10330;48.816;9.278;2022-09-17T16:55:04;13.50;99.90
20345;DHT22;10330;48.816;9.278;2022-09-17T16:57:31;13.40;99.90
20345;DHT22;10330;48.816;9.278;2022-09-17T16:59:58;13.30;99.90
20345;DHT22;10330;48.816;9.278;2022-09-17T17:02:25;13.30;99.90
20345;DHT22;10330;48.816;9.278;2022-09-17T17:04:52;13.20;99.90
20345;DHT22;10330;48.816;9.278;2022-09-17T17:07:19;13.20;99.90
20345;DHT22;10330;48.816;9.278;2022-09-17T17:09:57;13.20;99.90
20345;DHT22;10330;48.816;9.278;2022-09-17T17:12:27;13.10;99.90
20345;DHT22;10330;48.816;9.278;2022-09-17T17:14:53;13.10;99.90
20345;DHT22;10330;48.816;9.278;2022-09-17T17:17:20;13.10;99.90
20345;DHT22;10330;48.816;9.278;2022-09-17T17:19:46;13.20;99.90
20345;DHT22;10330;48.816;9.278;2022-09-17T17:22:14;13.00;99.90
20345;DHT22;10330;48.816;9.278;2022-09-17T17:24:40;12.70;99.90
20345;DHT22;10330;48.816;9.278;2022-09-17T17:27:06;11.90;99.90
20345;DHT22;10330;48.816;9.278;2022-09-17T17:29:36;11.40;99.90
20345;DHT22;10330;48.816;9.278;2022-09-17T17:32:03;11.00;99.90
20345;DHT22;10330;48.816;9.278;2022-09-17T17:34:29;10.80;99.90
20345;DHT22;10330;48.816;9.278;2022-09-17T17:36:57;10.70;99.90
20345;DHT22;10330;48.816;9.278;2022-09-17T17:39:23;10.60;99.90
20345;DHT22;10330;48.816;9.278;2022-09-17T17:41:50;10.30;99.90
20345;DHT22;10330;48.816;9.278;2022-09-17T17:44:23;10.10;99.90
20345;DHT22;10330;48.816;9.278;2022-09-17T17:46:59;10.20;99.90
20345;DHT22;10330;48.816;9.278;2022-09-17T17:49:25;10.20;99.90
20345;DHT22;10330;48.816;9.278;2022-09-17T17:51:52;10.30;99.90
20345;DHT22;10330;48.816;9.278;2022-09-17T17:54:19;10.30;99.90
20345;DHT22;10330;48.816;9.278;2022-09-17T17:57:07;10.30;99.90
20345;DHT22;10330;48.816;9.278;2022-09-17T17:59:35;10.30;99.90
20345;DHT22;10330;48.816;9.278;2022-09-17T18:02:13;10.30;99.90
20345;DHT22;10330;48.816;9.278;2022-09-17T18:04:40;10.40;99.90
20345;DHT22;10330;48.816;9.278;2022-09-17T18:07:08;10.50;99.90
20345;DHT22;10330;48.816;9.278;2022-09-17T18:09:34;10.50;99.90
20345;DHT22;10330;48.816;9.278;2022-09-17T18:12:01;10.60;99.90
20345;DHT22;10330;48.816;9.278;2022-09-17T18:14:37;10.60;99.90
20345;DHT22;10330;48.816;9.278;2022-09-17T18:17:05;10.60;99.90
20345;DHT22;10330;48.816;9.278;2022-09-17T18:19:58;10.60;99.90
20345;DHT22;10330;48.816;9.278;2022-09-17T18:22:27;10.70;99.90
20345;DHT22;10330;48.816;9.278;2022-09-17T18:25:10;10.70;99.90
20345;DHT22;10330;48.816;9.278;2022-09-17T18:27:49;10.80;99.90
20345;DHT22;10330;48.816;9.278;2022-09-17T18:30:18;10.70;99.90
20345;DHT22;10330;48.816;9.278;2022-09-17T18:33:06;10.70;99.90
20345;DHT22;10330;48.816;9.278;2022-09-17T18:35:36;10.70;99.90
20345;DHT22;10330;48.816;9.278;2022-09-17T18:38:04;10.70;99.90
20345;DHT22;10330;48.816;9.278;2022-09-17T18:40:37;10.70;99.90
20345;DHT22;10330;48.816;9.278;2022-09-17T18:43:08;10.70;99.90
20345;DHT22;10330;48.816;9.278;2022-09-17T18:45:34;10.60;99.90
20345;DHT22;10330;48.816;9.278;2022-09-17T18:48:03;10.60;99.90
20345;DHT22;10330;48.816;9.278;2022-09-17T18:50:29;10.70;99.90
20345;DHT22;10330;48.816;9.278;2022-09-17T18:52:56;10.70;99.90
20345;DHT22;10330;48.816;9.278;2022-09-17T18:55:22;10.70;99.90
20345;DHT22;10330;48.816;9.278;2022-09-17T18:57:50;10.70;99.90
20345;DHT22;10330;48.816;9.278;2022-09-17T19:00:20;10.60;99.90
20345;DHT22;10330;48.816;9.278;2022-09-17T19:02:47;10.60;99.90
20345;DHT22;10330;48.816;9.278;2022-09-17T19:05:14;10.70;99.90
20345;DHT22;10330;48.816;9.278;2022-09-17T19:07:47;10.60;99.90
20345;DHT22;10330;48.816;9.278;2022-09-17T19:10:14;10.60;99.90
20345;DHT22;10330;48.816;9.278;2022-09-17T19:12:40;10.60;99.90
20345;DHT22;10330;48.816;9.278;2022-09-17T19:15:07;10.50;99.90
20345;DHT22;10330;48.816;9.278;2022-09-17T19:17:35;10.60;99.90
20345;DHT22;10330;48.816;9.278;2022-09-17T19:20:02;10.60;99.90
20345;DHT22;10330;48.816;9.278;2022-09-17T19:22:28;10.60;99.90
20345;DHT22;10330;48.816;9.278;2022-09-17T19:24:54;10.50;99.90
20345;DHT22;10330;48.816;9.278;2022-09-17T19:27:21;10.40;99.90
20345;DHT22;10330;48.816;9.278;2022-09-17T19:29:47;10.40;99.90
20345;DHT22;10330;48.816;9.278;2022-09-17T19:32:13;10.30;99.90
20345;DHT22;10330;48.816;9.278;2022-09-17T19:34:39;10.30;99.90
20345;DHT22;10330;48.816;9.278;2022-09-17T19:37:07;10.10;99.90
20345;DHT22;10330;48.816;9.278;2022-09-17T19:39:34;10.10;99.90
20345;DHT22;10330;48.816;9.278;2022-09-17T19:42:01;10.00;99.90
20345;DHT22;10330;48.816;9.278;2022-09-17T19:44:27;9.90;99.90
20345;DHT22;10330;48.816;9.278;2022-09-17T19:46:54;9.90;99.90
20345;DHT22;10330;48.816;9.278;2022-09-17T20:19:00;9.80;99.90
20345;DHT22;10330;48.816;9.278;2022-09-17T20:21:27;9.70;99.90
20345;DHT22;10330;48.816;9.278;2022-09-17T20:23:55;9.80;99.90
20345;DHT22;10330;48.816;9.278;2022-09-17T20:26:23;9.80;99.90
20345;DHT22;10330;48.816;9.278;2022-09-17T20:28:50;9.70;99.90
20345;DHT22;10330;48.816;9.278;2022-09-17T20:31:20;9.80;99.90
20345;DHT22;10330;48.816;9.278;2022-09-17T20:33:49;9.80;99.90
20345;DHT22;10330;48.816;9.278;2022-09-17T20:36:17;9.90;99.90
20345;DHT22;10330;48.816;9.278;2022-09-17T20:38:45;9.80;99.90
20345;DHT22;10330;48.816;9.278;2022-09-17T20:41:13;9.80;99.90
20345;DHT22;10330;48.816;9.278;2022-09-17T20:43:45;9.80;99.90
20345;DHT22;10330;48.816;9.278;2022-09-17T20:46:12;9.80;99.90
20345;DHT22;10330;48.816;9.278;2022-09-17T20:48:39;9.80;99.90
20345;DHT22;10330;48.816;9.278;2022-09-17T20:51:11;9.80;99.90
20345;DHT22;10330;48.816;9.278;2022-09-17T20:53:46;9.90;99.90
20345;DHT22;10330;48.816;9.278;2022-09-17T20:56:29;9.90;99.90
20345;DHT22;10330;48.816;9.278;2022-09-17T20:59:09;9.90;99.90
20345;DHT22;10330;48.816;9.278;2022-09-17T21:01:53;9.90;99.90
20345;DHT22;10330;48.816;9.278;2022-09-17T21:04:21;10.00;99.90
20345;DHT22;10330;48.816;9.278;2022-09-17T21:06:52;9.90;99.90
20345;DHT22;10330;48.816;9.278;2022-09-17T21:09:19;9.70;99.90
20345;DHT22;10330;48.816;9.278;2022-09-17T21:11:47;9.50;99.90
20345;DHT22;10330;48.816;9.278;2022-09-17T21:14:14;9.30;99.90
20345;DHT22;10330;48.816;9.278;2022-09-17T21:16:43;9.20;99.90
20345;DHT22;10330;48.816;9.278;2022-09-17T21:19:13;9.00;99.90
20345;DHT22;10330;48.816;9.278;2022-09-17T21:21:41;9.00;99.90
20345;DHT22;10330;48.816;9.278;2022-09-17T21:24:13;8.90;99.90
20345;DHT22;10330;48.816;9.278;2022-09-17T21:26:40;9.00;99.90
20345;DHT22;10330;48.816;9.278;2022-09-17T21:29:07;9.00;99.90
20345;DHT22;10330;48.816;9.278;2022-09-17T21:31:34;9.10;99.90
20345;DHT22;10330;48.816;9.278;2022-09-17T21:34:04;9.10;99.90
20345;DHT22;10330;48.816;9.278;2022-09-17T21:36:34;9.20;99.90
20345;DHT22;10330;48.816;9.278;2022-09-17T21:39:04;9.30;99.90
20345;DHT22;10330;48.816;9.278;2022-09-17T21:44:13;9.30;99.90
20345;DHT22;10330;48.816;9.278;2022-09-17T21:46:40;9.40;99.90
20345;DHT22;10330;48.816;9.278;2022-09-17T21:49:06;9.40;99.90
20345;DHT22;10330;48.816;9.278;2022-09-17T21:51:35;9.40;99.90
20345;DHT22;10330;48.816;9.278;2022-09-17T21:54:06;9.50;99.90
20345;DHT22;10330;48.816;9.278;2022-09-17T21:56:34;9.50;99.90
20345;DHT22;10330;48.816;9.278;2022-09-17T21:59:03;9.50;99.90
20345;DHT22;10330;48.816;9.278;2022-09-17T22:01:32;9.60;99.90
20345;DHT22;10330;48.816;9.278;2022-09-17T22:04:08;9.60;99.90
20345;DHT22;10330;48.816;9.278;2022-09-17T22:06:35;9.60;99.90
20345;DHT22;10330;48.816;9.278;2022-09-17T22:09:03;9.70;99.90
20345;DHT22;10330;48.816;9.278;2022-09-17T22:11:31;9.60;99.90
20345;DHT22;10330;48.816;9.278;2022-09-17T22:14:04;9.60;99.90
20345;DHT22;10330;48.816;9.278;2022-09-17T22:16:39;9.60;99.90